Cornelia, Iowa
Current Conditions -  °F | °C
As of 6:35 AM on Wednesday 26 Nov 2014 (Local Time) from KCAV Reporting Station
Haze Haze  
Wind Chill: 15°   Ceiling: 1100
Heat Index: 27°   Visibility: 4mi
Dew Point: 25°   Wind: 15mph
Humidity: 93%   Direction: 110°ESE
Pressure: 29.91"   Gusts: 23mph
Location:  42.7038°N, 93.7195°W
Report Text: KCAV 261235Z AUTO 11013G20KT 4SM BR BKN011 BKN033 OVC065 M03/M04 A2991 RMK AO2
Loading
Personal Weather Stations






























Interactive Weather Map New forecast layout! Learn more

10-Day Weather Forecast

Advertisements
Track Severe Weather on mobile